sensor_id;sensor_type;location;lat;lon;timestamp;pressure;altitude;pressure_sealevel;temperature;humidity
62942;BME280;49042;47.318;19.874;2023-08-06T00:00:31;99019.50;;;20.36;100.00
62942;BME280;49042;47.318;19.874;2023-08-06T00:03:33;99010.09;;;20.27;100.00
62942;BME280;49042;47.318;19.874;2023-08-06T00:06:35;99007.69;;;20.47;100.00
62942;BME280;49042;47.318;19.874;2023-08-06T00:09:36;98997.22;;;20.43;100.00
62942;BME280;49042;47.318;19.874;2023-08-06T00:12:38;99008.06;;;20.36;100.00
62942;BME280;49042;47.318;19.874;2023-08-06T00:15:40;99004.53;;;20.62;100.00
62942;BME280;49042;47.318;19.874;2023-08-06T00:18:42;99028.97;;;20.71;100.00
62942;BME280;49042;47.318;19.874;2023-08-06T00:21:43;99010.75;;;20.61;100.00
62942;BME280;49042;47.318;19.874;2023-08-06T00:24:45;99019.59;;;20.88;100.00
62942;BME280;49042;47.318;19.874;2023-08-06T00:27:53;99029.25;;;20.89;100.00
62942;BME280;49042;47.318;19.874;2023-08-06T00:30:55;99036.28;;;20.90;100.00
62942;BME280;49042;47.318;19.874;2023-08-06T00:33:57;99037.28;;;20.87;100.00
62942;BME280;49042;47.318;19.874;2023-08-06T00:36:59;99034.22;;;20.72;100.00
62942;BME280;49042;47.318;19.874;2023-08-06T00:40:00;99018.78;;;20.60;100.00
62942;BME280;49042;47.318;19.874;2023-08-06T00:43:02;99023.53;;;20.75;100.00
62942;BME280;49042;47.318;19.874;2023-08-06T00:46:04;99024.81;;;20.89;100.00
62942;BME280;49042;47.318;19.874;2023-08-06T00:49:06;98992.47;;;20.26;100.00
62942;BME280;49042;47.318;19.874;2023-08-06T00:52:08;98989.94;;;20.23;100.00
62942;BME280;49042;47.318;19.874;2023-08-06T00:55:10;98982.91;;;20.22;100.00
62942;BME280;49042;47.318;19.874;2023-08-06T00:58:12;98970.69;;;20.18;100.00
62942;BME280;49042;47.318;19.874;2023-08-06T01:01:15;98977.16;;;20.63;100.00
62942;BME280;49042;47.318;19.874;2023-08-06T01:04:17;98982.34;;;20.39;100.00
62942;BME280;49042;47.318;19.874;2023-08-06T01:14:08;98950.84;;;20.03;100.00
62942;BME280;49042;47.318;19.874;2023-08-06T01:17:13;98952.72;;;20.28;100.00
62942;BME280;49042;47.318;19.874;2023-08-06T01:20:15;98958.06;;;20.26;100.00
62942;BME280;49042;47.318;19.874;2023-08-06T01:23:18;98954.44;;;20.29;100.00
62942;BME280;49042;47.318;19.874;2023-08-06T01:26:41;98953.16;;;20.14;100.00
62942;BME280;49042;47.318;19.874;2023-08-06T01:29:48;98953.94;;;19.88;100.00
62942;BME280;49042;47.318;19.874;2023-08-06T01:32:53;98953.09;;;18.95;100.00
62942;BME280;49042;47.318;19.874;2023-08-06T01:35:58;98940.16;;;18.86;100.00
62942;BME280;49042;47.318;19.874;2023-08-06T01:39:00;98942.31;;;18.69;100.00
62942;BME280;49042;47.318;19.874;2023-08-06T01:42:02;98936.56;;;18.55;100.00
62942;BME280;49042;47.318;19.874;2023-08-06T01:45:08;98937.34;;;18.23;100.00
62942;BME280;49042;47.318;19.874;2023-08-06T01:48:10;98929.69;;;18.12;100.00
62942;BME280;49042;47.318;19.874;2023-08-06T01:51:12;98926.97;;;18.15;100.00
62942;BME280;49042;47.318;19.874;2023-08-06T01:54:13;98921.91;;;18.06;100.00
62942;BME280;49042;47.318;19.874;2023-08-06T01:57:15;98928.19;;;18.02;100.00
62942;BME280;49042;47.318;19.874;2023-08-06T02:00:17;98918.53;;;18.01;100.00
62942;BME280;49042;47.318;19.874;2023-08-06T02:03:18;98922.81;;;18.05;100.00
62942;BME280;49042;47.318;19.874;2023-08-06T02:06:20;98917.81;;;17.92;100.00
62942;BME280;49042;47.318;19.874;2023-08-06T02:09:22;98918.59;;;17.97;100.00
62942;BME280;49042;47.318;19.874;2023-08-06T02:12:23;98910.78;;;17.93;100.00
62942;BME280;49042;47.318;19.874;2023-08-06T02:15:25;98923.16;;;17.91;100.00
62942;BME280;49042;47.318;19.874;2023-08-06T02:18:27;98911.69;;;17.92;100.00
62942;BME280;49042;47.318;19.874;2023-08-06T02:21:29;98907.97;;;18.01;100.00
62942;BME280;49042;47.318;19.874;2023-08-06T02:24:30;98902.78;;;17.97;100.00
62942;BME280;49042;47.318;19.874;2023-08-06T02:27:32;98900.12;;;17.97;100.00
62942;BME280;49042;47.318;19.874;2023-08-06T02:30:34;98900.84;;;18.04;100.00
62942;BME280;49042;47.318;19.874;2023-08-06T02:33:35;98896.59;;;17.98;100.00
62942;BME280;49042;47.318;19.874;2023-08-06T02:36:37;98895.47;;;18.09;100.00
62942;BME280;49042;47.318;19.874;2023-08-06T02:39:39;98894.53;;;18.10;100.00
62942;BME280;49042;47.318;19.874;2023-08-06T02:42:41;98888.63;;;18.00;100.00
62942;BME280;49042;47.318;19.874;2023-08-06T02:45:43;98864.19;;;17.93;100.00
62942;BME280;49042;47.318;19.874;2023-08-06T02:48:45;98862.84;;;18.12;100.00
62942;BME280;49042;47.318;19.874;2023-08-06T02:51:46;98863.84;;;18.07;100.00
62942;BME280;49042;47.318;19.874;2023-08-06T02:54:48;98867.16;;;18.16;100.00
62942;BME280;49042;47.318;19.874;2023-08-06T02:57:50;98873.91;;;18.28;100.00
62942;BME280;49042;47.318;19.874;2023-08-06T03:01:02;98878.44;;;18.21;100.00
62942;BME280;49042;47.318;19.874;2023-08-06T03:04:05;98878.97;;;18.01;100.00
62942;BME280;49042;47.318;19.874;2023-08-06T03:07:07;98882.47;;;18.01;100.00
62942;BME280;49042;47.318;19.874;2023-08-06T03:10:09;98879.69;;;18.06;100.00
62942;BME280;49042;47.318;19.874;2023-08-06T03:13:10;98885.81;;;18.08;100.00
62942;BME280;49042;47.318;19.874;2023-08-06T03:16:12;98881.06;;;18.23;100.00
62942;BME280;49042;47.318;19.874;2023-08-06T03:19:14;98883.97;;;18.12;100.00
62942;BME280;49042;47.318;19.874;2023-08-06T03:22:16;98889.69;;;17.93;100.00
62942;BME280;49042;47.318;19.874;2023-08-06T03:25:17;98878.59;;;17.78;100.00
62942;BME280;49042;47.318;19.874;2023-08-06T03:28:19;98881.97;;;17.85;100.00
62942;BME280;49042;47.318;19.874;2023-08-06T03:31:21;98882.75;;;17.88;100.00
62942;BME280;49042;47.318;19.874;2023-08-06T03:34:22;98882.97;;;17.79;100.00
62942;BME280;49042;47.318;19.874;2023-08-06T03:37:24;98879.56;;;17.75;100.00
62942;BME280;49042;47.318;19.874;2023-08-06T03:40:26;98872.28;;;17.85;100.00
62942;BME280;49042;47.318;19.874;2023-08-06T03:43:28;98873.00;;;17.92;100.00
62942;BME280;49042;47.318;19.874;2023-08-06T03:46:30;98873.22;;;17.84;100.00
62942;BME280;49042;47.318;19.874;2023-08-06T03:49:35;98873.34;;;17.78;100.00
62942;BME280;49042;47.318;19.874;2023-08-06T03:52:37;98865.28;;;17.84;100.00
62942;BME280;49042;47.318;19.874;2023-08-06T03:55:38;98863.47;;;17.86;100.00
62942;BME280;49042;47.318;19.874;2023-08-06T03:58:40;98860.66;;;17.94;100.00
62942;BME280;49042;47.318;19.874;2023-08-06T04:01:42;98856.59;;;17.81;100.00
62942;BME280;49042;47.318;19.874;2023-08-06T04:04:44;98859.72;;;17.95;100.00
62942;BME280;49042;47.318;19.874;2023-08-06T04:07:45;98866.53;;;17.68;100.00
62942;BME280;49042;47.318;19.874;2023-08-06T04:10:54;98860.56;;;17.61;100.00
62942;BME280;49042;47.318;19.874;2023-08-06T04:13:56;98852.81;;;17.54;100.00
62942;BME280;49042;47.318;19.874;2023-08-06T04:16:57;98853.81;;;17.49;100.00
62942;BME280;49042;47.318;19.874;2023-08-06T04:19:59;98851.03;;;17.55;100.00
62942;BME280;49042;47.318;19.874;2023-08-06T04:23:06;98843.53;;;17.36;100.00
62942;BME280;49042;47.318;19.874;2023-08-06T04:26:08;98840.03;;;17.36;100.00
62942;BME280;49042;47.318;19.874;2023-08-06T04:29:09;98840.25;;;17.28;100.00
62942;BME280;49042;47.318;19.874;2023-08-06T04:32:12;98835.47;;;17.44;100.00
62942;BME280;49042;47.318;19.874;2023-08-06T04:35:14;98828.25;;;17.52;100.00
62942;BME280;49042;47.318;19.874;2023-08-06T04:38:16;98824.78;;;17.50;100.00
62942;BME280;49042;47.318;19.874;2023-08-06T04:41:18;98818.75;;;17.45;100.00
62942;BME280;49042;47.318;19.874;2023-08-06T04:44:20;98816.31;;;17.37;100.00
62942;BME280;49042;47.318;19.874;2023-08-06T04:47:22;98802.34;;;17.33;100.00
62942;BME280;49042;47.318;19.874;2023-08-06T04:50:24;98804.03;;;17.36;100.00
62942;BME280;49042;47.318;19.874;2023-08-06T04:53:25;98798.34;;;17.53;100.00
62942;BME280;49042;47.318;19.874;2023-08-06T04:56:27;98786.97;;;17.51;100.00
62942;BME280;49042;47.318;19.874;2023-08-06T04:59:29;98791.31;;;17.54;100.00
62942;BME280;49042;47.318;19.874;2023-08-06T05:02:30;98793.84;;;17.59;100.00
62942;BME280;49042;47.318;19.874;2023-08-06T05:05:33;98788.72;;;17.52;100.00
62942;BME280;49042;47.318;19.874;2023-08-06T05:08:35;98779.72;;;17.60;100.00
62942;BME280;49042;47.318;19.874;2023-08-06T05:11:37;98771.44;;;17.40;100.00
62942;BME280;49042;47.318;19.874;2023-08-06T05:14:38;98781.59;;;17.56;100.00
62942;BME280;49042;47.318;19.874;2023-08-06T05:17:40;98772.91;;;17.52;100.00
62942;BME280;49042;47.318;19.874;2023-08-06T05:20:42;98777.25;;;17.53;100.00
62942;BME280;49042;47.318;19.874;2023-08-06T05:23:44;98783.50;;;17.49;100.00
62942;BME280;49042;47.318;19.874;2023-08-06T05:26:46;98779.88;;;17.53;100.00
62942;BME280;49042;47.318;19.874;2023-08-06T05:29:49;98774.78;;;17.47;100.00
62942;BME280;49042;47.318;19.874;2023-08-06T05:32:50;98766.41;;;17.66;100.00
62942;BME280;49042;47.318;19.874;2023-08-06T05:35:52;98760.63;;;17.51;100.00
62942;BME280;49042;47.318;19.874;2023-08-06T05:38:54;98761.28;;;17.60;100.00
62942;BME280;49042;47.318;19.874;2023-08-06T05:41:56;98760.19;;;17.70;100.00
62942;BME280;49042;47.318;19.874;2023-08-06T05:44:57;98774.41;;;17.63;100.00
62942;BME280;49042;47.318;19.874;2023-08-06T05:47:59;98777.06;;;17.63;100.00
62942;BME280;49042;47.318;19.874;2023-08-06T05:51:01;98785.84;;;17.62;100.00
62942;BME280;49042;47.318;19.874;2023-08-06T05:54:02;98792.19;;;17.54;100.00
62942;BME280;49042;47.318;19.874;2023-08-06T05:57:05;98788.50;;;17.62;100.00
62942;BME280;49042;47.318;19.874;2023-08-06T06:00:07;98785.09;;;17.57;100.00
62942;BME280;49042;47.318;19.874;2023-08-06T06:03:09;98776.91;;;17.68;100.00
62942;BME280;49042;47.318;19.874;2023-08-06T06:06:11;98781.66;;;17.53;100.00
62942;BME280;49042;47.318;19.874;2023-08-06T06:09:15;98783.06;;;17.68;100.00
62942;BME280;49042;47.318;19.874;2023-08-06T06:12:17;98784.03;;;17.64;100.00
62942;BME280;49042;47.318;19.874;2023-08-06T06:15:19;98779.09;;;17.50;100.00
62942;BME280;49042;47.318;19.874;2023-08-06T06:18:21;98776.03;;;17.67;100.00
62942;BME280;49042;47.318;19.874;2023-08-06T06:21:26;98774.28;;;17.68;100.00
62942;BME280;49042;47.318;19.874;2023-08-06T06:24:27;98775.94;;;17.72;100.00
62942;BME280;49042;47.318;19.874;2023-08-06T06:27:29;98778.62;;;17.70;100.00
62942;BME280;49042;47.318;19.874;2023-08-06T06:30:31;98776.69;;;17.77;100.00
62942;BME280;49042;47.318;19.874;2023-08-06T06:33:32;98775.91;;;17.73;100.00
62942;BME280;49042;47.318;19.874;2023-08-06T06:36:34;98785.69;;;17.68;100.00
62942;BME280;49042;47.318;19.874;2023-08-06T06:39:36;98783.22;;;17.62;100.00
62942;BME280;49042;47.318;19.874;2023-08-06T06:42:38;98773.69;;;17.56;100.00
62942;BME280;49042;47.318;19.874;2023-08-06T06:45:39;98771.97;;;17.55;100.00
62942;BME280;49042;47.318;19.874;2023-08-06T06:48:41;98771.69;;;17.66;100.00
62942;BME280;49042;47.318;19.874;2023-08-06T06:51:43;98771.91;;;17.92;100.00
62942;BME280;49042;47.318;19.874;2023-08-06T06:54:44;98758.28;;;17.74;100.00
62942;BME280;49042;47.318;19.874;2023-08-06T06:57:46;98775.63;;;17.84;100.00
62942;BME280;49042;47.318;19.874;2023-08-06T07:00:48;98774.16;;;17.72;100.00
62942;BME280;49042;47.318;19.874;2023-08-06T07:03:50;98779.16;;;17.83;100.00
62942;BME280;49042;47.318;19.874;2023-08-06T07:06:52;98787.44;;;18.03;100.00
62942;BME280;49042;47.318;19.874;2023-08-06T07:09:54;98800.53;;;17.72;100.00
62942;BME280;49042;47.318;19.874;2023-08-06T07:12:56;98800.78;;;17.61;100.00
62942;BME280;49042;47.318;19.874;2023-08-06T07:15:58;98810.53;;;17.94;100.00
62942;BME280;49042;47.318;19.874;2023-08-06T07:19:00;98811.97;;;17.71;100.00
62942;BME280;49042;47.318;19.874;2023-08-06T07:22:01;98815.53;;;17.70;100.00
62942;BME280;49042;47.318;19.874;2023-08-06T07:25:04;98823.34;;;17.35;100.00
62942;BME280;49042;47.318;19.874;2023-08-06T07:28:05;98823.03;;;17.09;100.00
62942;BME280;49042;47.318;19.874;2023-08-06T07:31:07;98822.25;;;17.04;100.00
62942;BME280;49042;47.318;19.874;2023-08-06T07:34:09;98823.84;;;17.11;100.00
62942;BME280;49042;47.318;19.874;2023-08-06T07:37:11;98829.81;;;17.21;100.00
62942;BME280;49042;47.318;19.874;2023-08-06T07:40:13;98831.59;;;17.21;100.00
62942;BME280;49042;47.318;19.874;2023-08-06T07:43:15;98839.38;;;17.27;100.00
62942;BME280;49042;47.318;19.874;2023-08-06T07:46:17;98854.41;;;17.22;100.00
62942;BME280;49042;47.318;19.874;2023-08-06T07:49:19;98851.94;;;17.12;100.00
62942;BME280;49042;47.318;19.874;2023-08-06T07:52:21;98857.03;;;17.22;100.00
62942;BME280;49042;47.318;19.874;2023-08-06T07:55:23;98855.44;;;17.13;100.00
62942;BME280;49042;47.318;19.874;2023-08-06T07:58:25;98862.03;;;17.34;100.00
62942;BME280;49042;47.318;19.874;2023-08-06T08:01:26;98865.06;;;17.14;100.00
62942;BME280;49042;47.318;19.874;2023-08-06T08:04:28;98863.59;;;17.02;100.00
62942;BME280;49042;47.318;19.874;2023-08-06T08:07:30;98867.59;;;17.19;100.00
62942;BME280;49042;47.318;19.874;2023-08-06T08:10:32;98869.38;;;17.20;100.00
62942;BME280;49042;47.318;19.874;2023-08-06T08:13:34;98880.41;;;17.38;100.00
62942;BME280;49042;47.318;19.874;2023-08-06T08:16:36;98887.78;;;17.61;100.00
62942;BME280;49042;47.318;19.874;2023-08-06T08:19:38;98896.59;;;17.98;100.00
62942;BME280;49042;47.318;19.874;2023-08-06T08:22:39;98892.91;;;17.68;100.00
62942;BME280;49042;47.318;19.874;2023-08-06T08:25:41;98891.84;;;17.76;100.00
62942;BME280;49042;47.318;19.874;2023-08-06T08:28:43;98895.72;;;17.60;100.00
62942;BME280;49042;47.318;19.874;2023-08-06T08:31:45;98895.59;;;17.25;100.00
62942;BME280;49042;47.318;19.874;2023-08-06T08:34:46;98895.50;;;17.31;100.00
62942;BME280;49042;47.318;19.874;2023-08-06T08:37:48;98902.31;;;17.40;100.00
62942;BME280;49042;47.318;19.874;2023-08-06T08:40:52;98903.59;;;17.61;100.00
62942;BME280;49042;47.318;19.874;2023-08-06T08:43:55;98909.22;;;18.20;100.00
62942;BME280;49042;47.318;19.874;2023-08-06T08:46:58;98918.53;;;18.37;100.00
62942;BME280;49042;47.318;19.874;2023-08-06T08:50:01;98924.66;;;18.01;100.00
62942;BME280;49042;47.318;19.874;2023-08-06T08:53:04;98926.53;;;17.58;100.00
62942;BME280;49042;47.318;19.874;2023-08-06T08:56:06;98916.88;;;17.58;100.00
62942;BME280;49042;47.318;19.874;2023-08-06T08:59:09;98905.34;;;17.21;100.00
62942;BME280;49042;47.318;19.874;2023-08-06T09:02:12;98894.16;;;17.09;100.00
62942;BME280;49042;47.318;19.874;2023-08-06T09:05:16;98910.87;;;17.51;100.00
62942;BME280;49042;47.318;19.874;2023-08-06T09:08:26;98918.47;;;17.65;100.00
62942;BME280;49042;47.318;19.874;2023-08-06T09:11:30;98921.44;;;17.50;100.00
62942;BME280;49042;47.318;19.874;2023-08-06T09:14:40;98908.16;;;17.11;100.00
62942;BME280;49042;47.318;19.874;2023-08-06T09:17:43;98895.19;;;17.00;100.00
62942;BME280;49042;47.318;19.874;2023-08-06T09:20:45;98894.03;;;17.16;100.00
62942;BME280;49042;47.318;19.874;2023-08-06T09:23:46;98902.72;;;17.21;100.00
62942;BME280;49042;47.318;19.874;2023-08-06T09:26:48;98940.41;;;17.66;100.00
62942;BME280;49042;47.318;19.874;2023-08-06T09:29:50;98939.50;;;17.27;100.00
62942;BME280;49042;47.318;19.874;2023-08-06T09:32:51;98922.75;;;17.30;100.00
62942;BME280;49042;47.318;19.874;2023-08-06T09:35:53;98927.84;;;17.38;100.00
62942;BME280;49042;47.318;19.874;2023-08-06T09:38:56;98935.91;;;17.30;100.00
62942;BME280;49042;47.318;19.874;2023-08-06T09:41:59;98943.88;;;17.27;100.00
62942;BME280;49042;47.318;19.874;2023-08-06T09:45:07;98941.31;;;17.23;100.00
62942;BME280;49042;47.318;19.874;2023-08-06T09:48:09;98953.34;;;17.37;100.00
62942;BME280;49042;47.318;19.874;2023-08-06T09:51:13;98954.78;;;17.52;100.00
62942;BME280;49042;47.318;19.874;2023-08-06T09:54:15;98946.44;;;17.30;100.00
62942;BME280;49042;47.318;19.874;2023-08-06T09:57:28;98952.72;;;17.65;100.00
62942;BME280;49042;47.318;19.874;2023-08-06T10:00:31;98961.69;;;17.98;100.00
62942;BME280;49042;47.318;19.874;2023-08-06T10:03:39;98961.84;;;17.90;100.00
62942;BME280;49042;47.318;19.874;2023-08-06T10:06:42;98970.38;;;18.02;100.00
62942;BME280;49042;47.318;19.874;2023-08-06T10:09:44;98961.00;;;17.88;100.00
62942;BME280;49042;47.318;19.874;2023-08-06T10:12:49;98957.37;;;17.92;100.00
62942;BME280;49042;47.318;19.874;2023-08-06T10:15:51;98952.31;;;17.84;100.00
62942;BME280;49042;47.318;19.874;2023-08-06T10:18:54;98957.84;;;18.12;100.00
62942;BME280;49042;47.318;19.874;2023-08-06T10:22:17;98961.75;;;18.33;100.00
62942;BME280;49042;47.318;19.874;2023-08-06T10:25:19;98961.78;;;18.67;100.00
62942;BME280;49042;47.318;19.874;2023-08-06T10:28:21;98971.63;;;18.23;100.00
62942;BME280;49042;47.318;19.874;2023-08-06T10:31:54;98970.06;;;18.16;100.00
62942;BME280;49042;47.318;19.874;2023-08-06T10:34:58;98976.88;;;18.26;100.00
62942;BME280;49042;47.318;19.874;2023-08-06T10:41:29;98975.19;;;17.84;100.00
62942;BME280;49042;47.318;19.874;2023-08-06T10:44:30;98988.06;;;17.98;100.00
62942;BME280;49042;47.318;19.874;2023-08-06T10:47:38;99009.38;;;18.27;100.00
62942;BME280;49042;47.318;19.874;2023-08-06T10:50:44;99005.16;;;18.56;100.00
62942;BME280;49042;47.318;19.874;2023-08-06T10:53:49;99002.22;;;17.94;100.00
62942;BME280;49042;47.318;19.874;2023-08-06T10:56:51;98998.03;;;18.23;100.00
62942;BME280;49042;47.318;19.874;2023-08-06T10:59:53;98993.03;;;18.11;100.00
62942;BME280;49042;47.318;19.874;2023-08-06T11:03:11;99008.22;;;18.39;100.00
62942;BME280;49042;47.318;19.874;2023-08-06T11:06:20;99012.22;;;18.17;100.00
62942;BME280;49042;47.318;19.874;2023-08-06T11:09:22;99014.41;;;18.73;100.00
62942;BME280;49042;47.318;19.874;2023-08-06T11:12:24;99009.00;;;18.79;100.00
62942;BME280;49042;47.318;19.874;2023-08-06T11:15:25;99008.84;;;18.49;100.00
62942;BME280;49042;47.318;19.874;2023-08-06T11:18:28;99002.63;;;18.13;100.00
62942;BME280;49042;47.318;19.874;2023-08-06T11:21:30;99015.50;;;18.29;100.00
62942;BME280;49042;47.318;19.874;2023-08-06T11:24:32;99014.28;;;18.43;100.00
62942;BME280;49042;47.318;19.874;2023-08-06T11:27:33;99014.84;;;18.91;100.00
62942;BME280;49042;47.318;19.874;2023-08-06T11:30:37;99019.56;;;18.44;100.00
62942;BME280;49042;47.318;19.874;2023-08-06T11:33:40;99021.97;;;18.52;100.00
62942;BME280;49042;47.318;19.874;2023-08-06T11:36:42;99022.53;;;18.30;100.00
62942;BME280;49042;47.318;19.874;2023-08-06T11:39:46;99029.88;;;18.15;100.00
62942;BME280;49042;47.318;19.874;2023-08-06T11:42:50;99018.69;;;18.04;100.00
62942;BME280;49042;47.318;19.874;2023-08-06T11:45:52;99028.41;;;18.02;100.00
62942;BME280;49042;47.318;19.874;2023-08-06T11:48:58;99041.34;;;17.73;100.00
62942;BME280;49042;47.318;19.874;2023-08-06T11:52:08;99041.03;;;17.44;100.00
62942;BME280;49042;47.318;19.874;2023-08-06T11:55:10;99038.31;;;17.49;100.00
62942;BME280;49042;47.318;19.874;2023-08-06T11:58:12;99048.19;;;17.37;100.00
62942;BME280;49042;47.318;19.874;2023-08-06T12:01:14;99048.19;;;17.37;100.00
62942;BME280;49042;47.318;19.874;2023-08-06T12:04:16;99052.66;;;17.33;100.00
62942;BME280;49042;47.318;19.874;2023-08-06T12:07:17;99054.66;;;17.19;100.00
62942;BME280;49042;47.318;19.874;2023-08-06T12:10:20;99064.44;;;17.13;100.00
62942;BME280;49042;47.318;19.874;2023-08-06T12:13:22;99060.50;;;17.38;100.00
62942;BME280;49042;47.318;19.874;2023-08-06T12:16:23;99068.75;;;17.64;100.00
62942;BME280;49042;47.318;19.874;2023-08-06T12:19:25;99063.47;;;17.64;100.00
62942;BME280;49042;47.318;19.874;2023-08-06T12:22:27;99063.94;;;17.42;100.00
62942;BME280;49042;47.318;19.874;2023-08-06T12:25:29;99064.78;;;17.42;100.00
62942;BME280;49042;47.318;19.874;2023-08-06T12:28:31;99051.03;;;17.71;100.00
62942;BME280;49042;47.318;19.874;2023-08-06T12:31:32;99048.94;;;18.28;100.00
62942;BME280;49042;47.318;19.874;2023-08-06T12:34:34;99046.28;;;18.30;100.00
62942;BME280;49042;47.318;19.874;2023-08-06T12:37:52;99048.47;;;18.09;100.00
62942;BME280;49042;47.318;19.874;2023-08-06T12:40:56;99047.63;;;18.07;100.00
62942;BME280;49042;47.318;19.874;2023-08-06T12:43:57;99044.00;;;18.13;100.00
62942;BME280;49042;47.318;19.874;2023-08-06T12:46:59;99045.53;;;18.22;100.00
62942;BME280;49042;47.318;19.874;2023-08-06T12:50:01;99049.53;;;18.02;100.00
62942;BME280;49042;47.318;19.874;2023-08-06T12:53:02;99052.28;;;17.95;100.00
62942;BME280;49042;47.318;19.874;2023-08-06T12:56:06;99050.84;;;17.80;100.00
62942;BME280;49042;47.318;19.874;2023-08-06T12:59:08;99059.62;;;17.81;100.00
62942;BME280;49042;47.318;19.874;2023-08-06T13:02:09;99064.41;;;17.61;100.00
62942;BME280;49042;47.318;19.874;2023-08-06T13:05:12;99066.97;;;17.66;100.00
62942;BME280;49042;47.318;19.874;2023-08-06T13:08:14;99070.50;;;17.65;100.00
62942;BME280;49042;47.318;19.874;2023-08-06T13:11:16;99070.41;;;17.70;100.00
62942;BME280;49042;47.318;19.874;2023-08-06T13:14:19;99078.81;;;17.44;100.00
62942;BME280;49042;47.318;19.874;2023-08-06T13:17:21;99084.16;;;17.40;100.00
62942;BME280;49042;47.318;19.874;2023-08-06T13:20:23;99087.69;;;17.39;100.00
62942;BME280;49042;47.318;19.874;2023-08-06T13:23:25;99101.03;;;17.31;100.00
62942;BME280;49042;47.318;19.874;2023-08-06T13:26:31;99095.09;;;17.16;100.00
62942;BME280;49042;47.318;19.874;2023-08-06T13:29:33;99095.97;;;17.17;100.00
62942;BME280;49042;47.318;19.874;2023-08-06T13:32:35;99107.47;;;17.11;100.00
62942;BME280;49042;47.318;19.874;2023-08-06T13:35:38;99110.09;;;17.12;100.00
62942;BME280;49042;47.318;19.874;2023-08-06T13:38:40;99103.81;;;17.21;100.00
62942;BME280;49042;47.318;19.874;2023-08-06T13:41:42;99113.88;;;17.48;100.00
62942;BME280;49042;47.318;19.874;2023-08-06T13:44:45;99121.66;;;17.56;100.00
62942;BME280;49042;47.318;19.874;2023-08-06T13:47:47;99129.63;;;17.51;100.00
62942;BME280;49042;47.318;19.874;2023-08-06T13:50:49;99131.28;;;17.57;100.00
62942;BME280;49042;47.318;19.874;2023-08-06T13:53:56;99135.84;;;17.49;100.00
62942;BME280;49042;47.318;19.874;2023-08-06T13:56:59;99133.16;;;17.52;100.00
62942;BME280;49042;47.318;19.874;2023-08-06T14:00:01;99133.34;;;17.41;100.00
62942;BME280;49042;47.318;19.874;2023-08-06T14:03:03;99129.78;;;17.43;100.00
62942;BME280;49042;47.318;19.874;2023-08-06T14:06:05;99130.91;;;17.30;100.00
62942;BME280;49042;47.318;19.874;2023-08-06T14:09:07;99130.91;;;17.28;100.00
62942;BME280;49042;47.318;19.874;2023-08-06T14:12:09;99132.72;;;17.26;100.00
62942;BME280;49042;47.318;19.874;2023-08-06T14:15:11;99139.81;;;17.21;100.00
62942;BME280;49042;47.318;19.874;2023-08-06T14:18:14;99138.09;;;17.18;100.00
62942;BME280;49042;47.318;19.874;2023-08-06T14:21:17;99134.69;;;17.11;100.00
62942;BME280;49042;47.318;19.874;2023-08-06T14:24:19;99137.28;;;17.15;100.00
62942;BME280;49042;47.318;19.874;2023-08-06T14:27:21;99140.75;;;17.20;100.00
62942;BME280;49042;47.318;19.874;2023-08-06T14:30:23;99147.72;;;17.22;100.00
62942;BME280;49042;47.318;19.874;2023-08-06T14:33:26;99140.00;;;17.10;100.00
62942;BME280;49042;47.318;19.874;2023-08-06T14:36:28;99141.81;;;17.05;100.00
62942;BME280;49042;47.318;19.874;2023-08-06T14:39:33;99142.72;;;17.04;100.00
62942;BME280;49042;47.318;19.874;2023-08-06T14:42:35;99136.03;;;16.82;100.00
62942;BME280;49042;47.318;19.874;2023-08-06T14:45:38;99138.00;;;16.69;100.00
62942;BME280;49042;47.318;19.874;2023-08-06T14:48:41;99146.03;;;16.59;100.00
62942;BME280;49042;47.318;19.874;2023-08-06T14:51:43;99142.38;;;16.68;100.00
62942;BME280;49042;47.318;19.874;2023-08-06T14:54:45;99150.22;;;16.73;100.00
62942;BME280;49042;47.318;19.874;2023-08-06T14:57:48;99150.22;;;16.72;100.00
62942;BME280;49042;47.318;19.874;2023-08-06T15:00:50;99148.53;;;16.70;100.00
62942;BME280;49042;47.318;19.874;2023-08-06T15:03:52;99153.69;;;16.77;100.00
62942;BME280;49042;47.318;19.874;2023-08-06T15:06:54;99150.31;;;16.67;100.00
62942;BME280;49042;47.318;19.874;2023-08-06T15:09:58;99161.69;;;16.69;100.00
62942;BME280;49042;47.318;19.874;2023-08-06T15:13:03;99147.75;;;16.62;100.00
62942;BME280;49042;47.318;19.874;2023-08-06T15:16:05;99149.66;;;16.51;100.00
62942;BME280;49042;47.318;19.874;2023-08-06T15:19:07;99154.87;;;16.55;100.00
62942;BME280;49042;47.318;19.874;2023-08-06T15:22:09;99152.53;;;16.35;100.00
62942;BME280;49042;47.318;19.874;2023-08-06T15:25:14;99142.88;;;16.35;100.00
62942;BME280;49042;47.318;19.874;2023-08-06T15:28:16;99141.22;;;16.26;100.00
62942;BME280;49042;47.318;19.874;2023-08-06T15:31:22;99148.16;;;16.34;100.00
62942;BME280;49042;47.318;19.874;2023-08-06T15:34:24;99152.53;;;16.33;100.00
62942;BME280;49042;47.318;19.874;2023-08-06T15:37:26;99155.06;;;16.40;100.00
62942;BME280;49042;47.318;19.874;2023-08-06T15:40:29;99163.69;;;16.51;100.00
62942;BME280;49042;47.318;19.874;2023-08-06T15:43:31;99166.34;;;16.51;100.00
62942;BME280;49042;47.318;19.874;2023-08-06T15:46:35;99169.84;;;16.53;100.00
62942;BME280;49042;47.318;19.874;2023-08-06T15:49:38;99185.44;;;16.67;100.00
62942;BME280;49042;47.318;19.874;2023-08-06T15:52:40;99188.88;;;16.69;100.00